sensor_id;sensor_type;location;lat;lon;timestamp;temperature;humidity
32614;DHT22;19031;51.400;6.770;2023-08-12T00:01:27;21.70;99.90
32614;DHT22;19031;51.400;6.770;2023-08-12T00:03:53;21.60;99.90
32614;DHT22;19031;51.400;6.770;2023-08-12T00:06:19;21.60;99.90
32614;DHT22;19031;51.400;6.770;2023-08-12T00:08:45;21.60;99.90
32614;DHT22;19031;51.400;6.770;2023-08-12T00:11:10;21.50;99.90
32614;DHT22;19031;51.400;6.770;2023-08-12T00:13:36;21.50;99.90
32614;DHT22;19031;51.400;6.770;2023-08-12T00:16:01;21.50;99.90
32614;DHT22;19031;51.400;6.770;2023-08-12T00:18:27;21.60;99.90
32614;DHT22;19031;51.400;6.770;2023-08-12T00:20:52;21.50;99.90
32614;DHT22;19031;51.400;6.770;2023-08-12T00:23:18;21.50;99.90
32614;DHT22;19031;51.400;6.770;2023-08-12T00:25:44;21.60;99.90
32614;DHT22;19031;51.400;6.770;2023-08-12T00:28:09;21.50;99.90
32614;DHT22;19031;51.400;6.770;2023-08-12T00:30:35;21.40;99.90
32614;DHT22;19031;51.400;6.770;2023-08-12T00:33:01;21.50;99.90
32614;DHT22;19031;51.400;6.770;2023-08-12T00:35:27;21.60;99.90
32614;DHT22;19031;51.400;6.770;2023-08-12T00:37:53;21.40;99.90
32614;DHT22;19031;51.400;6.770;2023-08-12T00:40:18;21.40;99.90
32614;DHT22;19031;51.400;6.770;2023-08-12T00:42:44;21.40;99.90
32614;DHT22;19031;51.400;6.770;2023-08-12T00:45:10;21.50;99.90
32614;DHT22;19031;51.400;6.770;2023-08-12T00:47:38;21.40;99.90
32614;DHT22;19031;51.400;6.770;2023-08-12T00:50:05;21.30;99.90
32614;DHT22;19031;51.400;6.770;2023-08-12T00:52:31;21.40;99.90
32614;DHT22;19031;51.400;6.770;2023-08-12T00:54:56;21.40;99.90
32614;DHT22;19031;51.400;6.770;2023-08-12T00:57:22;21.30;99.90
32614;DHT22;19031;51.400;6.770;2023-08-12T00:59:49;21.20;99.90
32614;DHT22;19031;51.400;6.770;2023-08-12T01:02:15;21.30;99.90
32614;DHT22;19031;51.400;6.770;2023-08-12T01:04:41;21.30;99.90
32614;DHT22;19031;51.400;6.770;2023-08-12T01:07:06;21.30;99.90
32614;DHT22;19031;51.400;6.770;2023-08-12T01:09:32;21.30;99.90
32614;DHT22;19031;51.400;6.770;2023-08-12T01:12:12;21.30;99.90
32614;DHT22;19031;51.400;6.770;2023-08-12T01:15:13;21.30;99.90
32614;DHT22;19031;51.400;6.770;2023-08-12T01:17:42;21.30;99.90
32614;DHT22;19031;51.400;6.770;2023-08-12T01:20:08;21.20;99.90
32614;DHT22;19031;51.400;6.770;2023-08-12T01:22:37;21.20;99.90
32614;DHT22;19031;51.400;6.770;2023-08-12T01:25:05;21.10;99.90
32614;DHT22;19031;51.400;6.770;2023-08-12T01:27:31;21.10;99.90
32614;DHT22;19031;51.400;6.770;2023-08-12T01:29:57;21.20;99.90
32614;DHT22;19031;51.400;6.770;2023-08-12T01:37:38;21.30;99.90
32614;DHT22;19031;51.400;6.770;2023-08-12T01:40:05;21.10;99.90
32614;DHT22;19031;51.400;6.770;2023-08-12T01:42:33;21.20;99.90
32614;DHT22;19031;51.400;6.770;2023-08-12T01:44:59;21.20;99.90
32614;DHT22;19031;51.400;6.770;2023-08-12T01:47:27;21.20;99.90
32614;DHT22;19031;51.400;6.770;2023-08-12T01:49:52;21.20;99.90
32614;DHT22;19031;51.400;6.770;2023-08-12T01:52:18;21.20;99.90
32614;DHT22;19031;51.400;6.770;2023-08-12T01:54:43;21.20;99.90
32614;DHT22;19031;51.400;6.770;2023-08-12T01:57:09;21.20;99.90
32614;DHT22;19031;51.400;6.770;2023-08-12T01:59:35;21.10;99.90
32614;DHT22;19031;51.400;6.770;2023-08-12T02:02:01;21.10;99.90
32614;DHT22;19031;51.400;6.770;2023-08-12T02:04:27;21.10;99.90
32614;DHT22;19031;51.400;6.770;2023-08-12T02:06:53;21.10;99.90
32614;DHT22;19031;51.400;6.770;2023-08-12T02:09:19;21.10;99.90
32614;DHT22;19031;51.400;6.770;2023-08-12T02:11:45;21.10;99.90
32614;DHT22;19031;51.400;6.770;2023-08-12T02:14:11;21.10;99.90
32614;DHT22;19031;51.400;6.770;2023-08-12T02:16:36;21.20;99.90
32614;DHT22;19031;51.400;6.770;2023-08-12T02:19:02;21.10;99.90
32614;DHT22;19031;51.400;6.770;2023-08-12T02:21:28;21.10;99.90
32614;DHT22;19031;51.400;6.770;2023-08-12T02:23:53;21.20;99.90
32614;DHT22;19031;51.400;6.770;2023-08-12T02:26:19;21.20;99.90
32614;DHT22;19031;51.400;6.770;2023-08-12T02:28:45;21.10;99.90
32614;DHT22;19031;51.400;6.770;2023-08-12T02:31:10;21.10;99.90
32614;DHT22;19031;51.400;6.770;2023-08-12T02:33:36;21.10;99.90
32614;DHT22;19031;51.400;6.770;2023-08-12T02:36:01;21.20;99.90
32614;DHT22;19031;51.400;6.770;2023-08-12T02:38:27;21.10;99.90
32614;DHT22;19031;51.400;6.770;2023-08-12T02:40:53;21.20;99.90
32614;DHT22;19031;51.400;6.770;2023-08-12T02:43:18;21.20;99.90
32614;DHT22;19031;51.400;6.770;2023-08-12T02:45:44;21.10;99.90
32614;DHT22;19031;51.400;6.770;2023-08-12T02:48:10;21.10;99.90
32614;DHT22;19031;51.400;6.770;2023-08-12T02:50:37;21.10;99.90
32614;DHT22;19031;51.400;6.770;2023-08-12T02:53:03;21.10;99.90
32614;DHT22;19031;51.400;6.770;2023-08-12T02:55:28;21.10;99.90
32614;DHT22;19031;51.400;6.770;2023-08-12T02:57:55;21.00;99.90
32614;DHT22;19031;51.400;6.770;2023-08-12T03:00:20;21.00;99.90
32614;DHT22;19031;51.400;6.770;2023-08-12T03:02:47;21.10;99.90
32614;DHT22;19031;51.400;6.770;2023-08-12T03:05:12;21.10;99.90
32614;DHT22;19031;51.400;6.770;2023-08-12T03:07:38;21.10;99.90
32614;DHT22;19031;51.400;6.770;2023-08-12T03:10:04;21.10;99.90
32614;DHT22;19031;51.400;6.770;2023-08-12T03:12:30;21.10;99.90
32614;DHT22;19031;51.400;6.770;2023-08-12T03:14:56;21.00;99.90
32614;DHT22;19031;51.400;6.770;2023-08-12T03:17:21;21.00;99.90
32614;DHT22;19031;51.400;6.770;2023-08-12T03:19:47;21.10;99.90
32614;DHT22;19031;51.400;6.770;2023-08-12T03:22:12;21.00;99.90
32614;DHT22;19031;51.400;6.770;2023-08-12T03:24:38;21.00;99.90
32614;DHT22;19031;51.400;6.770;2023-08-12T03:27:04;21.00;99.90
32614;DHT22;19031;51.400;6.770;2023-08-12T03:29:29;21.00;99.90
32614;DHT22;19031;51.400;6.770;2023-08-12T03:31:55;20.90;99.90
32614;DHT22;19031;51.400;6.770;2023-08-12T03:34:21;20.90;99.90
32614;DHT22;19031;51.400;6.770;2023-08-12T03:36:47;20.90;99.90
32614;DHT22;19031;51.400;6.770;2023-08-12T03:39:14;20.90;99.90
32614;DHT22;19031;51.400;6.770;2023-08-12T03:41:40;21.00;99.90
32614;DHT22;19031;51.400;6.770;2023-08-12T03:44:05;21.00;99.90
32614;DHT22;19031;51.400;6.770;2023-08-12T03:46:31;20.90;99.90
32614;DHT22;19031;51.400;6.770;2023-08-12T03:48:57;20.90;99.90
32614;DHT22;19031;51.400;6.770;2023-08-12T03:51:22;20.90;99.90
32614;DHT22;19031;51.400;6.770;2023-08-12T03:53:48;20.90;99.90
32614;DHT22;19031;51.400;6.770;2023-08-12T03:56:13;20.90;99.90
32614;DHT22;19031;51.400;6.770;2023-08-12T03:58:42;21.00;99.90
32614;DHT22;19031;51.400;6.770;2023-08-12T04:01:07;20.90;99.90
32614;DHT22;19031;51.400;6.770;2023-08-12T04:03:33;20.90;99.90
32614;DHT22;19031;51.400;6.770;2023-08-12T04:05:59;20.90;99.90
32614;DHT22;19031;51.400;6.770;2023-08-12T04:08:24;20.90;99.90
32614;DHT22;19031;51.400;6.770;2023-08-12T04:10:51;20.80;99.90
32614;DHT22;19031;51.400;6.770;2023-08-12T04:13:16;20.80;99.90
32614;DHT22;19031;51.400;6.770;2023-08-12T04:15:42;20.80;99.90
32614;DHT22;19031;51.400;6.770;2023-08-12T04:18:08;20.80;99.90
32614;DHT22;19031;51.400;6.770;2023-08-12T04:20:33;20.80;99.90
32614;DHT22;19031;51.400;6.770;2023-08-12T04:22:59;20.70;99.90
32614;DHT22;19031;51.400;6.770;2023-08-12T04:25:25;20.70;99.90
32614;DHT22;19031;51.400;6.770;2023-08-12T04:27:51;20.80;99.90
32614;DHT22;19031;51.400;6.770;2023-08-12T04:30:17;20.70;99.90
32614;DHT22;19031;51.400;6.770;2023-08-12T04:32:43;20.70;99.90
32614;DHT22;19031;51.400;6.770;2023-08-12T04:35:08;20.70;99.90
32614;DHT22;19031;51.400;6.770;2023-08-12T04:37:36;20.60;99.90
32614;DHT22;19031;51.400;6.770;2023-08-12T04:40:02;20.70;99.90
32614;DHT22;19031;51.400;6.770;2023-08-12T04:42:30;20.70;99.90
32614;DHT22;19031;51.400;6.770;2023-08-12T04:44:55;20.70;99.90
32614;DHT22;19031;51.400;6.770;2023-08-12T04:47:21;20.70;99.90
32614;DHT22;19031;51.400;6.770;2023-08-12T04:49:47;20.70;99.90
32614;DHT22;19031;51.400;6.770;2023-08-12T04:52:12;20.80;99.90
32614;DHT22;19031;51.400;6.770;2023-08-12T04:54:38;20.90;99.90
32614;DHT22;19031;51.400;6.770;2023-08-12T04:57:04;20.90;99.90
32614;DHT22;19031;51.400;6.770;2023-08-12T04:59:31;20.90;99.90
32614;DHT22;19031;51.400;6.770;2023-08-12T05:01:56;21.10;99.90
32614;DHT22;19031;51.400;6.770;2023-08-12T05:04:22;21.10;99.90
32614;DHT22;19031;51.400;6.770;2023-08-12T05:06:47;21.20;99.90
32614;DHT22;19031;51.400;6.770;2023-08-12T05:09:14;21.20;99.90
32614;DHT22;19031;51.400;6.770;2023-08-12T05:11:39;21.30;99.90
32614;DHT22;19031;51.400;6.770;2023-08-12T05:14:05;21.30;99.90
32614;DHT22;19031;51.400;6.770;2023-08-12T05:16:31;21.30;99.90
32614;DHT22;19031;51.400;6.770;2023-08-12T05:18:56;21.20;99.90
32614;DHT22;19031;51.400;6.770;2023-08-12T05:21:22;21.20;99.90
32614;DHT22;19031;51.400;6.770;2023-08-12T05:23:48;21.10;99.90
32614;DHT22;19031;51.400;6.770;2023-08-12T05:26:13;21.20;99.90
32614;DHT22;19031;51.400;6.770;2023-08-12T05:28:39;21.10;99.90
32614;DHT22;19031;51.400;6.770;2023-08-12T05:31:05;21.20;99.90
32614;DHT22;19031;51.400;6.770;2023-08-12T05:33:30;21.20;99.90
32614;DHT22;19031;51.400;6.770;2023-08-12T05:35:57;21.20;99.90
32614;DHT22;19031;51.400;6.770;2023-08-12T05:38:22;21.20;99.90
32614;DHT22;19031;51.400;6.770;2023-08-12T05:40:48;21.20;99.90
32614;DHT22;19031;51.400;6.770;2023-08-12T05:43:14;21.10;99.90
32614;DHT22;19031;51.400;6.770;2023-08-12T05:45:39;21.10;99.90
32614;DHT22;19031;51.400;6.770;2023-08-12T05:48:05;21.20;99.90
32614;DHT22;19031;51.400;6.770;2023-08-12T05:50:31;21.20;99.90
32614;DHT22;19031;51.400;6.770;2023-08-12T05:52:56;21.20;99.90
32614;DHT22;19031;51.400;6.770;2023-08-12T05:55:22;21.20;99.90
32614;DHT22;19031;51.400;6.770;2023-08-12T05:57:47;21.20;99.90
32614;DHT22;19031;51.400;6.770;2023-08-12T06:00:13;21.20;99.90
32614;DHT22;19031;51.400;6.770;2023-08-12T06:02:39;21.20;99.90
32614;DHT22;19031;51.400;6.770;2023-08-12T06:05:05;21.20;99.90
32614;DHT22;19031;51.400;6.770;2023-08-12T06:07:30;21.20;99.90
32614;DHT22;19031;51.400;6.770;2023-08-12T06:09:56;21.30;99.90
32614;DHT22;19031;51.400;6.770;2023-08-12T06:12:22;21.10;99.90
32614;DHT22;19031;51.400;6.770;2023-08-12T06:14:47;21.20;99.90
32614;DHT22;19031;51.400;6.770;2023-08-12T06:17:13;21.20;99.90
32614;DHT22;19031;51.400;6.770;2023-08-12T06:19:38;21.10;99.90
32614;DHT22;19031;51.400;6.770;2023-08-12T06:22:04;21.00;99.90
32614;DHT22;19031;51.400;6.770;2023-08-12T06:24:30;21.00;99.90
32614;DHT22;19031;51.400;6.770;2023-08-12T06:26:55;21.00;99.90
32614;DHT22;19031;51.400;6.770;2023-08-12T06:29:21;20.90;99.90
32614;DHT22;19031;51.400;6.770;2023-08-12T06:31:46;20.90;99.90
32614;DHT22;19031;51.400;6.770;2023-08-12T06:34:12;20.80;99.90
32614;DHT22;19031;51.400;6.770;2023-08-12T06:36:38;20.80;99.90
32614;DHT22;19031;51.400;6.770;2023-08-12T06:39:04;20.80;99.90
32614;DHT22;19031;51.400;6.770;2023-08-12T06:41:29;20.90;99.90
32614;DHT22;19031;51.400;6.770;2023-08-12T06:43:55;20.90;99.90
32614;DHT22;19031;51.400;6.770;2023-08-12T06:46:20;21.00;99.90
32614;DHT22;19031;51.400;6.770;2023-08-12T06:48:46;21.00;99.90
32614;DHT22;19031;51.400;6.770;2023-08-12T06:51:11;20.90;99.90
32614;DHT22;19031;51.400;6.770;2023-08-12T06:53:38;21.00;99.90
32614;DHT22;19031;51.400;6.770;2023-08-12T06:56:04;21.00;99.90
32614;DHT22;19031;51.400;6.770;2023-08-12T06:58:31;21.00;99.90
32614;DHT22;19031;51.400;6.770;2023-08-12T07:00:56;21.00;99.90
32614;DHT22;19031;51.400;6.770;2023-08-12T07:03:24;21.10;99.90
32614;DHT22;19031;51.400;6.770;2023-08-12T07:05:50;21.00;99.90
32614;DHT22;19031;51.400;6.770;2023-08-12T07:08:15;21.00;99.90
32614;DHT22;19031;51.400;6.770;2023-08-12T07:10:42;21.10;99.90
32614;DHT22;19031;51.400;6.770;2023-08-12T07:13:07;21.10;99.90
32614;DHT22;19031;51.400;6.770;2023-08-12T07:15:33;21.10;99.90
32614;DHT22;19031;51.400;6.770;2023-08-12T07:17:58;21.20;99.90
32614;DHT22;19031;51.400;6.770;2023-08-12T07:20:25;21.20;99.90
32614;DHT22;19031;51.400;6.770;2023-08-12T07:22:51;21.10;99.90
32614;DHT22;19031;51.400;6.770;2023-08-12T07:25:16;21.20;99.90
32614;DHT22;19031;51.400;6.770;2023-08-12T07:27:42;21.20;99.90
32614;DHT22;19031;51.400;6.770;2023-08-12T07:30:08;21.30;99.90
32614;DHT22;19031;51.400;6.770;2023-08-12T07:32:36;21.40;99.90
32614;DHT22;19031;51.400;6.770;2023-08-12T07:35:03;21.40;99.90
32614;DHT22;19031;51.400;6.770;2023-08-12T07:37:29;21.50;99.90
32614;DHT22;19031;51.400;6.770;2023-08-12T07:39:54;21.50;99.90
32614;DHT22;19031;51.400;6.770;2023-08-12T07:42:20;21.50;99.90
32614;DHT22;19031;51.400;6.770;2023-08-12T07:44:46;21.50;99.90
32614;DHT22;19031;51.400;6.770;2023-08-12T07:47:12;21.50;99.90
32614;DHT22;19031;51.400;6.770;2023-08-12T07:49:38;21.50;99.90
32614;DHT22;19031;51.400;6.770;2023-08-12T07:52:04;21.60;99.90
32614;DHT22;19031;51.400;6.770;2023-08-12T07:54:29;21.70;99.90
32614;DHT22;19031;51.400;6.770;2023-08-12T07:56:55;21.80;99.90
32614;DHT22;19031;51.400;6.770;2023-08-12T07:59:21;21.90;99.90
32614;DHT22;19031;51.400;6.770;2023-08-12T08:01:46;22.00;99.90
32614;DHT22;19031;51.400;6.770;2023-08-12T08:04:12;22.10;99.90
32614;DHT22;19031;51.400;6.770;2023-08-12T08:06:38;22.20;99.90
32614;DHT22;19031;51.400;6.770;2023-08-12T08:09:03;22.30;99.90
32614;DHT22;19031;51.400;6.770;2023-08-12T08:11:30;22.40;99.90
32614;DHT22;19031;51.400;6.770;2023-08-12T08:13:58;22.50;99.90
32614;DHT22;19031;51.400;6.770;2023-08-12T08:16:24;22.30;99.90
32614;DHT22;19031;51.400;6.770;2023-08-12T08:18:49;22.40;99.90
32614;DHT22;19031;51.400;6.770;2023-08-12T08:21:15;22.40;99.90
32614;DHT22;19031;51.400;6.770;2023-08-12T08:23:41;22.30;99.90
32614;DHT22;19031;51.400;6.770;2023-08-12T08:26:07;22.40;99.90
32614;DHT22;19031;51.400;6.770;2023-08-12T08:28:33;22.40;99.90
32614;DHT22;19031;51.400;6.770;2023-08-12T08:30:59;22.40;99.90
32614;DHT22;19031;51.400;6.770;2023-08-12T08:33:25;22.40;99.90
32614;DHT22;19031;51.400;6.770;2023-08-12T08:35:54;22.50;99.90
32614;DHT22;19031;51.400;6.770;2023-08-12T08:38:19;22.50;99.90
32614;DHT22;19031;51.400;6.770;2023-08-12T08:40:45;22.60;99.90
32614;DHT22;19031;51.400;6.770;2023-08-12T08:43:15;22.60;99.90
32614;DHT22;19031;51.400;6.770;2023-08-12T08:45:44;22.50;99.90
32614;DHT22;19031;51.400;6.770;2023-08-12T08:48:10;22.60;99.90
32614;DHT22;19031;51.400;6.770;2023-08-12T08:50:37;22.60;99.90
32614;DHT22;19031;51.400;6.770;2023-08-12T08:53:05;22.60;99.90
32614;DHT22;19031;51.400;6.770;2023-08-12T08:55:32;22.60;99.90
32614;DHT22;19031;51.400;6.770;2023-08-12T08:57:58;22.80;99.90
32614;DHT22;19031;51.400;6.770;2023-08-12T09:00:24;22.80;99.90
32614;DHT22;19031;51.400;6.770;2023-08-12T09:02:50;22.80;99.90
32614;DHT22;19031;51.400;6.770;2023-08-12T09:05:17;22.70;99.90
32614;DHT22;19031;51.400;6.770;2023-08-12T09:07:43;22.70;99.90
32614;DHT22;19031;51.400;6.770;2023-08-12T09:10:11;22.70;99.90
32614;DHT22;19031;51.400;6.770;2023-08-12T09:12:37;22.60;99.90
32614;DHT22;19031;51.400;6.770;2023-08-12T09:15:03;22.30;99.90
32614;DHT22;19031;51.400;6.770;2023-08-12T09:17:30;22.30;99.90
32614;DHT22;19031;51.400;6.770;2023-08-12T09:19:58;22.30;99.90
32614;DHT22;19031;51.400;6.770;2023-08-12T09:22:25;22.30;99.90
32614;DHT22;19031;51.400;6.770;2023-08-12T09:24:56;22.30;99.90
32614;DHT22;19031;51.400;6.770;2023-08-12T09:27:22;22.30;99.90
32614;DHT22;19031;51.400;6.770;2023-08-12T09:29:47;22.20;99.90
32614;DHT22;19031;51.400;6.770;2023-08-12T09:32:18;22.20;99.90
32614;DHT22;19031;51.400;6.770;2023-08-12T09:34:52;22.20;99.90
32614;DHT22;19031;51.400;6.770;2023-08-12T09:37:19;22.20;99.90
32614;DHT22;19031;51.400;6.770;2023-08-12T09:39:45;22.30;99.90
32614;DHT22;19031;51.400;6.770;2023-08-12T09:42:11;22.20;99.90
32614;DHT22;19031;51.400;6.770;2023-08-12T09:44:38;22.00;99.90
32614;DHT22;19031;51.400;6.770;2023-08-12T09:47:05;21.90;99.90
32614;DHT22;19031;51.400;6.770;2023-08-12T09:49:30;21.90;99.90
32614;DHT22;19031;51.400;6.770;2023-08-12T09:51:59;21.90;99.90
32614;DHT22;19031;51.400;6.770;2023-08-12T09:54:27;21.90;99.90
32614;DHT22;19031;51.400;6.770;2023-08-12T09:56:56;21.80;99.90
32614;DHT22;19031;51.400;6.770;2023-08-12T09:59:23;21.70;99.90
32614;DHT22;19031;51.400;6.770;2023-08-12T10:01:50;21.70;99.90
32614;DHT22;19031;51.400;6.770;2023-08-12T10:04:27;21.80;99.90
32614;DHT22;19031;51.400;6.770;2023-08-12T10:06:53;21.90;99.90
32614;DHT22;19031;51.400;6.770;2023-08-12T10:09:19;22.00;99.90
32614;DHT22;19031;51.400;6.770;2023-08-12T10:11:46;22.10;99.90
32614;DHT22;19031;51.400;6.770;2023-08-12T10:14:13;22.20;99.90
32614;DHT22;19031;51.400;6.770;2023-08-12T10:16:42;22.20;99.90
32614;DHT22;19031;51.400;6.770;2023-08-12T10:19:11;22.30;99.90
32614;DHT22;19031;51.400;6.770;2023-08-12T10:21:37;22.40;99.90
32614;DHT22;19031;51.400;6.770;2023-08-12T10:24:05;22.40;99.90
32614;DHT22;19031;51.400;6.770;2023-08-12T10:26:32;22.60;99.90
32614;DHT22;19031;51.400;6.770;2023-08-12T10:28:59;22.70;99.90
32614;DHT22;19031;51.400;6.770;2023-08-12T10:31:26;22.60;99.90
32614;DHT22;19031;51.400;6.770;2023-08-12T10:33:56;22.50;99.90
32614;DHT22;19031;51.400;6.770;2023-08-12T10:36:22;22.60;99.90
32614;DHT22;19031;51.400;6.770;2023-08-12T10:38:48;22.70;99.90
32614;DHT22;19031;51.400;6.770;2023-08-12T10:43:54;22.60;99.90
32614;DHT22;19031;51.400;6.770;2023-08-12T10:49:08;22.50;99.90
32614;DHT22;19031;51.400;6.770;2023-08-12T10:54:23;22.50;99.90
32614;DHT22;19031;51.400;6.770;2023-08-12T10:57:18;22.70;99.90
32614;DHT22;19031;51.400;6.770;2023-08-12T10:59:53;22.60;99.90
32614;DHT22;19031;51.400;6.770;2023-08-12T11:02:29;22.50;99.90
32614;DHT22;19031;51.400;6.770;2023-08-12T11:05:04;22.40;99.90
32614;DHT22;19031;51.400;6.770;2023-08-12T11:10:14;22.50;99.90
32614;DHT22;19031;51.400;6.770;2023-08-12T11:12:46;22.50;99.90
32614;DHT22;19031;51.400;6.770;2023-08-12T11:15:12;22.30;99.90
32614;DHT22;19031;51.400;6.770;2023-08-12T11:17:46;22.60;99.90
32614;DHT22;19031;51.400;6.770;2023-08-12T11:20:12;22.60;99.90
32614;DHT22;19031;51.400;6.770;2023-08-12T11:22:43;22.70;99.90
32614;DHT22;19031;51.400;6.770;2023-08-12T11:25:13;22.80;99.90
32614;DHT22;19031;51.400;6.770;2023-08-12T11:27:48;23.10;99.90
32614;DHT22;19031;51.400;6.770;2023-08-12T11:30:18;23.10;99.90
32614;DHT22;19031;51.400;6.770;2023-08-12T11:32:46;23.40;99.90
32614;DHT22;19031;51.400;6.770;2023-08-12T11:35:13;23.50;99.90
32614;DHT22;19031;51.400;6.770;2023-08-12T11:37:41;23.50;99.90
32614;DHT22;19031;51.400;6.770;2023-08-12T11:40:08;23.70;99.90
32614;DHT22;19031;51.400;6.770;2023-08-12T11:42:38;23.60;99.90
32614;DHT22;19031;51.400;6.770;2023-08-12T11:45:05;23.60;99.90
32614;DHT22;19031;51.400;6.770;2023-08-12T11:47:31;23.50;99.90
32614;DHT22;19031;51.400;6.770;2023-08-12T11:49:57;23.60;99.90
32614;DHT22;19031;51.400;6.770;2023-08-12T11:52:23;23.50;99.90
32614;DHT22;19031;51.400;6.770;2023-08-12T11:54:49;23.30;99.90
32614;DHT22;19031;51.400;6.770;2023-08-12T11:57:16;23.10;99.90
32614;DHT22;19031;51.400;6.770;2023-08-12T11:59:42;22.70;99.90
32614;DHT22;19031;51.400;6.770;2023-08-12T12:02:08;22.60;99.90
32614;DHT22;19031;51.400;6.770;2023-08-12T12:04:34;22.40;99.90
32614;DHT22;19031;51.400;6.770;2023-08-12T12:07:00;22.20;99.90
32614;DHT22;19031;51.400;6.770;2023-08-12T12:09:31;22.20;99.90
32614;DHT22;19031;51.400;6.770;2023-08-12T12:11:57;22.00;99.90
32614;DHT22;19031;51.400;6.770;2023-08-12T12:14:24;22.20;99.90
32614;DHT22;19031;51.400;6.770;2023-08-12T12:16:51;22.10;99.90
32614;DHT22;19031;51.400;6.770;2023-08-12T12:19:23;22.10;99.90
32614;DHT22;19031;51.400;6.770;2023-08-12T12:21:50;22.00;99.90
32614;DHT22;19031;51.400;6.770;2023-08-12T12:24:16;22.10;99.90
32614;DHT22;19031;51.400;6.770;2023-08-12T12:26:43;22.00;99.90
32614;DHT22;19031;51.400;6.770;2023-08-12T12:29:09;22.00;99.90
32614;DHT22;19031;51.400;6.770;2023-08-12T12:31:39;22.10;99.90
32614;DHT22;19031;51.400;6.770;2023-08-12T12:34:06;22.00;99.90
32614;DHT22;19031;51.400;6.770;2023-08-12T12:36:36;22.10;99.90
32614;DHT22;19031;51.400;6.770;2023-08-12T12:39:03;22.10;99.90
32614;DHT22;19031;51.400;6.770;2023-08-12T12:41:29;22.20;99.90
32614;DHT22;19031;51.400;6.770;2023-08-12T12:43:55;22.20;99.90
32614;DHT22;19031;51.400;6.770;2023-08-12T12:46:21;22.30;99.90
32614;DHT22;19031;51.400;6.770;2023-08-12T12:48:47;22.50;99.90
32614;DHT22;19031;51.400;6.770;2023-08-12T12:51:13;22.60;99.90
32614;DHT22;19031;51.400;6.770;2023-08-12T12:53:39;22.80;99.90
32614;DHT22;19031;51.400;6.770;2023-08-12T12:56:05;22.90;99.90
32614;DHT22;19031;51.400;6.770;2023-08-12T12:58:35;23.10;99.90
32614;DHT22;19031;51.400;6.770;2023-08-12T13:01:01;23.20;99.90
32614;DHT22;19031;51.400;6.770;2023-08-12T13:03:27;23.20;99.90
32614;DHT22;19031;51.400;6.770;2023-08-12T13:05:54;23.30;99.90
32614;DHT22;19031;51.400;6.770;2023-08-12T13:08:19;23.50;99.90
32614;DHT22;19031;51.400;6.770;2023-08-12T13:10:45;23.40;99.90
32614;DHT22;19031;51.400;6.770;2023-08-12T13:13:13;23.50;99.90
32614;DHT22;19031;51.400;6.770;2023-08-12T13:15:40;23.50;99.90
32614;DHT22;19031;51.400;6.770;2023-08-12T13:18:05;23.30;99.90
32614;DHT22;19031;51.400;6.770;2023-08-12T13:20:31;23.20;99.90
32614;DHT22;19031;51.400;6.770;2023-08-12T13:22:56;23.20;99.90
32614;DHT22;19031;51.400;6.770;2023-08-12T13:25:22;23.20;99.90
32614;DHT22;19031;51.400;6.770;2023-08-12T13:27:47;22.90;99.90
32614;DHT22;19031;51.400;6.770;2023-08-12T13:30:16;22.70;99.90
32614;DHT22;19031;51.400;6.770;2023-08-12T13:32:41;22.40;99.90
32614;DHT22;19031;51.400;6.770;2023-08-12T13:35:07;22.40;99.90
32614;DHT22;19031;51.400;6.770;2023-08-12T13:37:33;22.40;99.90
32614;DHT22;19031;51.400;6.770;2023-08-12T13:39:58;22.30;99.90
32614;DHT22;19031;51.400;6.770;2023-08-12T13:42:24;22.50;99.90
32614;DHT22;19031;51.400;6.770;2023-08-12T13:44:50;22.70;99.90
32614;DHT22;19031;51.400;6.770;2023-08-12T13:47:15;22.90;99.90
32614;DHT22;19031;51.400;6.770;2023-08-12T13:49:41;23.40;99.90
32614;DHT22;19031;51.400;6.770;2023-08-12T13:52:06;23.70;99.90
32614;DHT22;19031;51.400;6.770;2023-08-12T13:54:32;24.00;99.90
32614;DHT22;19031;51.400;6.770;2023-08-12T13:56:59;24.00;99.90
32614;DHT22;19031;51.400;6.770;2023-08-12T13:59:32;24.20;99.90
32614;DHT22;19031;51.400;6.770;2023-08-12T14:02:01;24.50;99.90
32614;DHT22;19031;51.400;6.770;2023-08-12T14:04:32;24.50;99.90
32614;DHT22;19031;51.400;6.770;2023-08-12T14:06:57;24.70;99.90
32614;DHT22;19031;51.400;6.770;2023-08-12T14:09:23;25.10;99.90
32614;DHT22;19031;51.400;6.770;2023-08-12T14:11:48;25.80;99.90
32614;DHT22;19031;51.400;6.770;2023-08-12T14:14:14;26.20;99.90
32614;DHT22;19031;51.400;6.770;2023-08-12T14:16:40;26.10;99.90
32614;DHT22;19031;51.400;6.770;2023-08-12T14:19:05;25.70;99.90
32614;DHT22;19031;51.400;6.770;2023-08-12T14:21:31;25.90;99.90
32614;DHT22;19031;51.400;6.770;2023-08-12T14:23:56;26.00;99.90
32614;DHT22;19031;51.400;6.770;2023-08-12T14:26:22;26.50;99.90
32614;DHT22;19031;51.400;6.770;2023-08-12T14:28:47;26.90;99.90
32614;DHT22;19031;51.400;6.770;2023-08-12T14:31:13;27.10;99.90
32614;DHT22;19031;51.400;6.770;2023-08-12T14:33:38;26.90;99.90
32614;DHT22;19031;51.400;6.770;2023-08-12T14:36:04;26.80;99.90
32614;DHT22;19031;51.400;6.770;2023-08-12T14:38:30;26.80;99.90
32614;DHT22;19031;51.400;6.770;2023-08-12T14:40:56;26.90;99.90
32614;DHT22;19031;51.400;6.770;2023-08-12T14:43:22;27.00;99.90
32614;DHT22;19031;51.400;6.770;2023-08-12T14:45:47;26.90;99.90
32614;DHT22;19031;51.400;6.770;2023-08-12T14:48:13;26.70;99.90
32614;DHT22;19031;51.400;6.770;2023-08-12T14:50:40;26.70;99.90
32614;DHT22;19031;51.400;6.770;2023-08-12T14:53:07;26.50;99.90
32614;DHT22;19031;51.400;6.770;2023-08-12T14:55:32;26.40;99.90
32614;DHT22;19031;51.400;6.770;2023-08-12T14:57:58;26.10;99.90
32614;DHT22;19031;51.400;6.770;2023-08-12T15:00:23;25.90;99.90
32614;DHT22;19031;51.400;6.770;2023-08-12T15:02:49;25.80;99.90
32614;DHT22;19031;51.400;6.770;2023-08-12T15:05:15;25.70;99.90
32614;DHT22;19031;51.400;6.770;2023-08-12T15:07:41;25.40;99.90
32614;DHT22;19031;51.400;6.770;2023-08-12T15:10:06;25.20;99.90
32614;DHT22;19031;51.400;6.770;2023-08-12T15:12:32;25.10;99.90
32614;DHT22;19031;51.400;6.770;2023-08-12T15:14:58;25.30;99.90
32614;DHT22;19031;51.400;6.770;2023-08-12T15:17:23;25.60;99.90
32614;DHT22;19031;51.400;6.770;2023-08-12T15:19:49;25.70;99.90
32614;DHT22;19031;51.400;6.770;2023-08-12T15:22:15;25.50;99.90
32614;DHT22;19031;51.400;6.770;2023-08-12T15:24:40;25.40;99.90
32614;DHT22;19031;51.400;6.770;2023-08-12T15:27:06;25.40;99.90
32614;DHT22;19031;51.400;6.770;2023-08-12T15:29:31;25.40;99.90
32614;DHT22;19031;51.400;6.770;2023-08-12T15:31:57;25.80;99.90
32614;DHT22;19031;51.400;6.770;2023-08-12T15:34:23;25.80;99.90
32614;DHT22;19031;51.400;6.770;2023-08-12T15:36:50;26.00;99.90
32614;DHT22;19031;51.400;6.770;2023-08-12T15:39:16;25.90;99.90
32614;DHT22;19031;51.400;6.770;2023-08-12T15:41:43;26.00;99.90